Time;durP1;ratioP1;P1;durP2;ratioP2;P2;SDS_P1;SDS_P2;PMS_P1;PMS_P2;Temp;Humidity;BMP_temperature;BMP_pressure;BME280_temperature;BME280_humidity;BME280_pressure;Samples;Min_cycle;Max_cycle;Signal;HPM_P1;HPM_P2
2022/10/10 00:01:23;;;;;;;8.00;3.47;;;;;;;11.60;74.05;101374.34;5036987;28;20392;-60
2022/10/10 00:04:10;;;;;;;8.40;3.97;;;;;;;11.58;74.67;101367.50;5031016;28;20045;-60
2022/10/10 00:06:58;;;;;;;8.30;3.70;;;;;;;11.57;74.42;101371.31;5036279;28;20045;-59
2022/10/10 00:09:26;;;;;;;11.70;3.63;;;;;;;11.56;74.40;101366.94;5036407;28;20420;-61
2022/10/10 00:11:54;;;;;;;7.80;3.53;;;;;;;11.55;74.13;101368.03;5035950;28;20495;-59
2022/10/10 00:14:21;;;;;;;9.60;3.67;;;;;;;11.52;74.54;101364.75;5036217;28;20045;-59
2022/10/10 00:16:49;;;;;;;9.43;3.83;;;;;;;11.51;74.68;101368.53;5034792;28;20049;-59
2022/10/10 00:19:17;;;;;;;7.97;3.78;;;;;;;11.53;74.93;101362.84;5034728;28;20046;-61
2022/10/10 00:21:44;;;;;;;9.50;3.50;;;;;;;11.51;74.47;101363.09;5036256;28;20042;-61
2022/10/10 00:24:12;;;;;;;8.75;3.63;;;;;;;11.51;74.84;101363.09;5035899;28;20033;-60
2022/10/10 00:26:40;;;;;;;10.00;3.80;;;;;;;11.49;74.33;101362.50;5019634;28;20399;-60
2022/10/10 00:29:08;;;;;;;6.70;3.50;;;;;;;11.47;74.69;101359.25;5035452;28;20065;-58
2022/10/10 00:31:35;;;;;;;7.45;3.50;;;;;;;11.45;75.51;101364.13;5035362;28;20041;-59
2022/10/10 00:34:04;;;;;;;7.75;4.22;;;;;;;11.44;75.55;101362.47;5035522;28;20117;-59
2022/10/10 00:36:32;;;;;;;9.45;3.95;;;;;;;11.43;75.05;101360.03;5036219;28;20045;-58
2022/10/10 00:39:00;;;;;;;7.47;3.95;;;;;;;11.42;74.88;101348.28;5036417;28;20128;-59
2022/10/10 00:41:28;;;;;;;8.43;3.55;;;;;;;11.41;74.95;101351.28;5034926;28;20041;-60
2022/10/10 00:44:11;;;;;;;6.93;3.28;;;;;;;11.38;76.06;101351.81;5039334;28;20060;-59
2022/10/10 00:46:39;;;;;;;8.40;4.10;;;;;;;11.36;75.80;101356.69;5047000;28;20038;-55
2022/10/10 00:49:12;;;;;;;7.85;3.47;;;;;;;11.33;75.99;101344.41;5048377;28;20128;-60
2022/10/10 00:51:41;;;;;;;8.85;3.85;;;;;;;11.31;76.34;101343.84;5050057;28;20550;-60
2022/10/10 00:54:10;;;;;;;8.57;3.90;;;;;;;11.29;75.91;101346.81;5020072;28;20040;-57
2022/10/10 00:56:55;;;;;;;10.77;3.55;;;;;;;11.28;76.38;101342.44;5049228;28;20069;-56
2022/10/10 00:59:25;;;;;;;8.80;4.32;;;;;;;11.27;76.23;101342.69;5052524;28;20045;-60
2022/10/10 01:01:52;;;;;;;9.07;3.83;;;;;;;11.27;75.90;101343.50;5022780;28;20088;-59
2022/10/10 01:04:32;;;;;;;10.05;4.22;;;;;;;11.26;76.49;101338.34;5035853;28;20030;-60
2022/10/10 01:07:21;;;;;;;8.23;3.70;;;;;;;11.25;76.44;101342.13;5035171;28;20069;-61
2022/10/10 01:09:51;;;;;;;6.78;3.55;;;;;;;11.25;76.49;101328.50;5024836;28;20116;-60
2022/10/10 01:12:56;;;;;;;7.55;3.95;;;;;;;11.24;76.87;101343.22;5035516;28;20058;-59
2022/10/10 01:15:37;;;;;;;8.10;4.07;;;;;;;11.22;76.76;101329.03;5033782;28;20034;-59
2022/10/10 01:18:31;;;;;;;8.68;4.15;;;;;;;11.22;76.63;101326.28;5035307;28;20296;-59
2022/10/10 01:21:03;;;;;;;8.00;4.05;;;;;;;11.21;76.31;101330.13;5030175;28;20049;-55
2022/10/10 01:23:55;;;;;;;8.82;3.85;;;;;;;11.20;77.01;101325.72;5021935;28;20129;-59
2022/10/10 01:26:56;;;;;;;9.45;4.10;;;;;;;11.17;76.57;101324.34;5031645;28;20132;-60
2022/10/10 01:29:37;;;;;;;8.25;3.80;;;;;;;11.16;76.82;101322.72;5034648;28;20385;-58
2022/10/10 01:32:28;;;;;;;9.88;3.97;;;;;;;11.15;77.06;101321.03;5023859;28;20065;-60
2022/10/10 01:34:58;;;;;;;7.50;4.00;;;;;;;11.14;76.63;101318.59;5033383;28;20076;-59
2022/10/10 01:37:34;;;;;;;8.52;3.83;;;;;;;11.13;76.91;101316.94;5035765;28;20041;-59
2022/10/10 01:40:17;;;;;;;7.37;3.90;;;;;;;11.12;77.31;101315.31;5027500;28;20045;-58
2022/10/10 01:42:52;;;;;;;16.48;4.18;;;;;;;11.12;77.26;101304.41;5027766;28;20284;-59
2022/10/10 01:45:21;;;;;;;5.88;3.60;;;;;;;11.09;77.60;101316.66;5034502;28;20091;-60
2022/10/10 01:47:49;;;;;;;8.63;3.80;;;;;;;11.05;77.34;101310.88;5033872;28;20045;-59
2022/10/10 01:50:20;;;;;;;7.57;3.75;;;;;;;11.05;77.43;101305.41;5033018;28;20048;-59
2022/10/10 01:52:50;;;;;;;7.45;4.22;;;;;;;11.07;77.19;101308.72;5034333;28;20111;-60
2022/10/10 01:55:37;;;;;;;8.65;3.80;;;;;;;11.07;77.77;101305.16;5033594;28;20037;-58
2022/10/10 01:58:27;;;;;;;9.00;4.18;;;;;;;11.06;78.02;101301.63;5033810;28;20136;-58
2022/10/10 02:01:06;;;;;;;7.65;3.85;;;;;;;11.05;77.39;101291.78;5032432;28;20042;-59
2022/10/10 02:03:38;;;;;;;8.55;3.95;;;;;;;11.06;78.04;101298.06;5033113;28;20042;-60
2022/10/10 02:06:15;;;;;;;9.32;4.63;;;;;;;11.05;77.80;101294.50;5066471;28;20049;-60
2022/10/10 02:08:52;;;;;;;8.52;4.03;;;;;;;11.04;77.45;101292.88;5034423;28;20087;-57
2022/10/10 02:11:20;;;;;;;12.27;4.00;;;;;;;11.04;77.74;101281.97;5033610;28;20072;-61
2022/10/10 02:13:55;;;;;;;10.00;4.13;;;;;;;11.02;77.68;101284.13;5015642;28;20503;-60
2022/10/10 02:16:28;;;;;;;8.18;4.30;;;;;;;11.00;78.05;101286.28;5016691;28;20403;-60
2022/10/10 02:18:58;;;;;;;12.45;4.10;;;;;;;10.96;78.23;101274.25;5046879;28;20159;-55
2022/10/10 02:21:26;;;;;;;9.43;4.18;;;;;;;10.96;78.50;101282.44;5032937;28;20557;-57
2022/10/10 02:23:56;;;;;;;8.20;3.85;;;;;;;10.95;78.19;101272.63;5033527;28;20037;-58
2022/10/10 02:26:25;;;;;;;9.40;3.90;;;;;;;10.90;78.38;101272.56;5033968;28;20041;-55
2022/10/10 02:28:59;;;;;;;9.85;4.38;;;;;;;10.91;78.09;101276.13;5032569;28;20066;-60
2022/10/10 02:31:38;;;;;;;7.85;4.10;;;;;;;10.91;78.23;101274.22;5030317;28;20040;-60
2022/10/10 02:34:18;;;;;;;8.93;4.45;;;;;;;10.88;78.63;101272.81;5029647;28;20038;-60
2022/10/10 02:36:50;;;;;;;9.10;4.40;;;;;;;10.89;78.33;101273.63;5033011;28;20080;-57
2022/10/10 02:39:20;;;;;;;7.45;3.95;;;;;;;10.86;78.32;101266.81;5032169;28;20047;-59
2022/10/10 02:41:48;;;;;;;7.80;4.05;;;;;;;10.85;78.56;101264.34;5032884;28;20038;-59
2022/10/10 02:44:17;;;;;;;9.77;4.10;;;;;;;10.86;78.92;101274.16;5032756;28;20049;-60
2022/10/10 02:46:45;;;;;;;7.85;4.38;;;;;;;10.82;78.84;101257.53;5032809;28;20086;-61
2022/10/10 02:49:13;;;;;;;8.95;4.60;;;;;;;10.80;78.79;101250.66;5033465;28;20048;-61
2022/10/10 02:51:40;;;;;;;7.78;4.10;;;;;;;10.80;78.87;101253.38;5033473;28;20041;-60
2022/10/10 02:54:08;;;;;;;9.32;4.50;;;;;;;10.79;78.93;101258.00;5033297;28;20566;-59
2022/10/10 02:56:36;;;;;;;8.30;4.20;;;;;;;10.78;79.16;101250.94;5035070;28;20073;-59
2022/10/10 02:59:04;;;;;;;8.32;4.15;;;;;;;10.73;79.11;101248.16;5035308;28;20033;-57
2022/10/10 03:01:32;;;;;;;11.90;4.35;;;;;;;10.74;79.29;101243.53;5032216;28;20047;-61
2022/10/10 03:04:00;;;;;;;8.13;4.15;;;;;;;10.74;79.32;101243.53;5033349;28;20049;-60
2022/10/10 03:06:28;;;;;;;10.10;4.72;;;;;;;10.72;79.88;101243.78;5012477;28;20042;-60
2022/10/10 03:08:56;;;;;;;9.60;4.30;;;;;;;10.71;79.62;101238.59;5033462;28;20083;-60
2022/10/10 03:11:23;;;;;;;7.50;4.63;;;;;;;10.71;79.49;101239.41;5033006;28;20092;-58
2022/10/10 03:13:51;;;;;;;8.13;4.40;;;;;;;10.69;79.48;101235.31;5033039;28;20140;-58
2022/10/10 03:16:19;;;;;;;11.43;4.65;;;;;;;10.67;79.97;101232.84;5033539;28;20046;-60
2022/10/10 03:18:47;;;;;;;7.65;4.45;;;;;;;10.68;80.04;101233.66;5033244;28;20128;-59
2022/10/10 03:21:14;;;;;;;8.77;4.30;;;;;;;10.66;79.79;101242.09;5046209;28;20135;-60
2022/10/10 03:23:42;;;;;;;7.18;4.03;;;;;;;10.66;79.60;101237.47;5033174;28;20512;-59
2022/10/10 03:26:10;;;;;;;8.85;4.30;;;;;;;10.64;80.38;101233.34;5032204;28;20050;-58
2022/10/10 03:28:38;;;;;;;10.23;4.18;;;;;;;10.61;80.35;101233.88;5031865;28;20044;-59
2022/10/10 03:31:06;;;;;;;9.55;4.53;;;;;;;10.59;80.87;101236.84;5029145;28;20042;-59
2022/10/10 03:33:34;;;;;;;7.22;4.22;;;;;;;10.59;80.12;101225.13;5030308;28;20439;-58
2022/10/10 03:36:02;;;;;;;7.88;4.40;;;;;;;10.59;80.69;101231.41;5033019;28;20046;-58
2022/10/10 03:38:30;;;;;;;8.45;4.53;;;;;;;10.58;80.64;101232.50;5031876;28;20038;-57
2022/10/10 03:40:58;;;;;;;9.60;4.70;;;;;;;10.58;80.35;101229.78;5032365;28;20049;-58
2022/10/10 03:43:26;;;;;;;9.80;4.03;;;;;;;10.56;80.97;101236.53;5067717;28;20060;-60
2022/10/10 03:45:53;;;;;;;7.75;4.55;;;;;;;10.55;80.78;101233.00;5038778;28;20518;-58
2022/10/10 03:48:21;;;;;;;8.88;4.90;;;;;;;10.53;80.56;101234.31;5032861;28;20046;-56
2022/10/10 03:50:49;;;;;;;8.68;4.20;;;;;;;10.47;80.75;101228.00;5012091;28;20080;-55
2022/10/10 03:53:17;;;;;;;9.50;4.47;;;;;;;10.46;80.90;101231.81;5027094;28;20048;-56
2022/10/10 03:55:44;;;;;;;9.40;4.55;;;;;;;10.41;81.08;101229.03;5031738;28;20121;-54
2022/10/10 03:58:12;;;;;;;9.43;4.43;;;;;;;10.35;81.85;101236.34;5032433;28;20065;-57
2022/10/10 04:00:40;;;;;;;8.98;4.70;;;;;;;10.35;81.82;101235.53;5032535;28;20099;-55
2022/10/10 04:03:08;;;;;;;9.85;4.50;;;;;;;10.33;81.82;101241.22;5031312;28;20050;-55
2022/10/10 04:05:37;;;;;;;8.70;4.80;;;;;;;10.33;82.07;101234.94;5032182;28;20042;-56
2022/10/10 04:08:15;;;;;;;11.40;4.60;;;;;;;10.33;82.19;101232.22;5043989;28;20038;-57
2022/10/10 04:10:43;;;;;;;8.52;4.55;;;;;;;10.34;82.21;101228.41;5027531;28;20050;-58
2022/10/10 04:13:10;;;;;;;8.50;4.63;;;;;;;10.35;82.20;101230.06;5032474;28;20050;-56
2022/10/10 04:15:38;;;;;;;10.88;4.80;;;;;;;10.36;82.03;101228.97;5031608;28;20041;-57
2022/10/10 04:18:06;;;;;;;9.27;4.47;;;;;;;10.36;82.25;101228.97;5026247;28;20046;-55
2022/10/10 04:20:34;;;;;;;9.18;4.50;;;;;;;10.36;82.21;101226.25;5033694;28;20041;-60
2022/10/10 04:23:02;;;;;;;7.82;4.47;;;;;;;10.33;82.69;101233.03;5036218;28;20128;-59
2022/10/10 04:25:30;;;;;;;9.52;4.40;;;;;;;10.34;82.08;101223.81;5036578;28;20132;-58
2022/10/10 04:27:58;;;;;;;10.48;4.68;;;;;;;10.36;82.28;101234.44;5035460;28;20037;-61
2022/10/10 04:30:32;;;;;;;9.68;4.40;;;;;;;10.35;82.38;101227.34;5035900;28;20041;-59
2022/10/10 04:33:00;;;;;;;10.55;5.10;;;;;;;10.32;82.26;101225.13;5033185;28;20041;-59
2022/10/10 04:35:27;;;;;;;7.15;4.10;;;;;;;10.29;82.86;101228.38;5034955;28;20081;-61
2022/10/10 04:37:55;;;;;;;8.35;4.50;;;;;;;10.26;82.46;101220.69;5034391;28;20037;-60
2022/10/10 04:40:23;;;;;;;10.48;4.43;;;;;;;10.14;82.82;101227.09;5034533;28;20045;-58
2022/10/10 04:42:55;;;;;;;8.90;4.43;;;;;;;10.08;83.45;101230.84;5036034;28;20049;-58
2022/10/10 04:45:25;;;;;;;11.57;4.68;;;;;;;10.07;83.75;101223.72;5035817;28;20049;-60
2022/10/10 04:47:55;;;;;;;9.15;5.05;;;;;;;10.08;83.89;101225.41;5035591;28;20072;-58
2022/10/10 04:50:23;;;;;;;7.22;4.20;;;;;;;10.09;84.25;101227.03;5036406;28;20072;-62
2022/10/10 04:52:51;;;;;;;10.98;4.95;;;;;;;10.11;83.87;101224.88;5027313;28;20045;-60
2022/10/10 04:55:19;;;;;;;12.73;4.43;;;;;;;10.12;83.91;101231.13;5036488;28;20092;-61
2022/10/10 04:57:47;;;;;;;10.48;4.80;;;;;;;10.11;84.04;101235.78;5031081;28;20067;-62
2022/10/10 05:00:15;;;;;;;8.45;4.53;;;;;;;10.08;84.05;101230.84;5032416;28;20037;-60
2022/10/10 05:02:43;;;;;;;8.25;4.45;;;;;;;10.07;84.53;101229.19;5049047;28;20042;-59
2022/10/10 05:05:10;;;;;;;9.27;4.47;;;;;;;10.05;84.27;101228.59;5036017;28;20048;-60
2022/10/10 05:07:38;;;;;;;8.85;4.72;;;;;;;10.04;84.50;101226.97;5044118;28;20051;-60
2022/10/10 05:10:06;;;;;;;11.60;4.68;;;;;;;10.04;84.77;101221.53;5036727;28;20112;-60
2022/10/10 05:12:34;;;;;;;6.28;3.95;;;;;;;10.00;84.75;101223.09;5045426;28;20078;-61
2022/10/10 05:15:03;;;;;;;7.80;4.20;;;;;;;9.98;85.12;101219.81;5046509;28;20411;-58
2022/10/10 05:17:31;;;;;;;10.00;4.75;;;;;;;9.97;85.37;101218.19;5039430;28;20460;-60
2022/10/10 05:19:58;;;;;;;10.63;4.53;;;;;;;9.97;85.63;101218.19;5035875;28;20400;-60
2022/10/10 05:22:26;;;;;;;9.77;4.65;;;;;;;9.97;85.87;101218.19;5015354;28;20045;-58
2022/10/10 05:24:54;;;;;;;9.82;4.57;;;;;;;9.96;85.91;101216.53;5031330;28;20069;-57
2022/10/10 05:27:22;;;;;;;8.98;4.50;;;;;;;9.95;86.33;101214.88;5034533;28;20542;-60
2022/10/10 05:29:50;;;;;;;9.70;4.55;;;;;;;9.93;86.44;101211.59;5034569;28;20459;-59
2022/10/10 05:32:17;;;;;;;11.20;5.00;;;;;;;9.91;86.60;101211.00;5019755;28;20444;-60
2022/10/10 05:34:45;;;;;;;9.95;4.75;;;;;;;9.87;86.84;101212.63;5030457;28;20049;-60
2022/10/10 05:37:13;;;;;;;7.70;4.20;;;;;;;9.90;86.96;101223.00;5034107;28;20411;-60
2022/10/10 05:39:41;;;;;;;9.27;4.63;;;;;;;9.92;86.78;101218.94;5034953;28;20495;-60
2022/10/10 05:42:09;;;;;;;10.00;4.38;;;;;;;9.91;86.92;101219.19;5033180;28;20075;-58
2022/10/10 05:44:37;;;;;;;12.55;4.28;;;;;;;9.89;86.94;101226.81;5033998;28;20041;-60
2022/10/10 05:47:05;;;;;;;10.88;4.72;;;;;;;9.87;87.30;101221.59;5034505;28;20491;-59
2022/10/10 05:49:32;;;;;;;8.27;4.38;;;;;;;9.88;87.44;101219.69;5033668;28;20487;-62
2022/10/10 05:52:00;;;;;;;9.75;4.45;;;;;;;9.88;87.71;101219.69;5033183;28;20037;-61
2022/10/10 05:54:28;;;;;;;10.88;4.75;;;;;;;9.90;87.92;101223.00;5034760;28;20096;-59
2022/10/10 05:56:56;;;;;;;7.60;4.38;;;;;;;9.92;87.67;101226.28;5033197;28;20038;-59
2022/10/10 05:59:24;;;;;;;8.98;4.30;;;;;;;9.93;87.74;101217.03;5029710;28;20057;-59
2022/10/10 06:01:52;;;;;;;10.40;4.18;;;;;;;9.94;87.72;101214.06;5034159;28;20081;-60
2022/10/10 06:04:20;;;;;;;8.93;4.50;;;;;;;9.91;87.66;101217.31;5035136;28;20518;-59
2022/10/10 06:06:48;;;;;;;8.23;4.40;;;;;;;9.92;87.99;101220.84;5029581;28;20400;-58
2022/10/10 06:09:16;;;;;;;6.88;4.20;;;;;;;9.93;87.92;101215.16;4334809;28;10000681;-59
2022/10/10 06:11:44;;;;;;;12.02;4.90;;;;;;;9.94;87.89;101219.50;5026748;28;20433;-58
2022/10/10 06:14:12;;;;;;;8.38;4.28;;;;;;;9.95;88.14;101215.69;5021532;28;20721;-58
2022/10/10 06:16:42;;;;;;;10.57;4.60;;;;;;;9.98;88.14;101219.81;5024899;28;20531;-60
2022/10/10 06:19:10;;;;;;;9.38;4.80;;;;;;;9.99;88.31;101230.47;5031166;28;20091;-58
2022/10/10 06:21:42;;;;;;;12.15;5.30;;;;;;;10.01;88.30;101228.31;5029541;28;20049;-57
2022/10/10 06:24:09;;;;;;;9.65;5.00;;;;;;;10.03;88.34;101228.88;5030934;28;20060;-60
2022/10/10 06:26:37;;;;;;;11.95;4.70;;;;;;;10.04;88.14;101235.13;5030291;28;20096;-61
2022/10/10 06:29:06;;;;;;;9.85;4.55;;;;;;;10.02;88.54;101231.84;5029565;28;20034;-58
2022/10/10 06:31:38;;;;;;;8.40;4.57;;;;;;;9.98;89.28;101239.72;5020916;28;20072;-59
2022/10/10 06:34:06;;;;;;;8.75;4.38;;;;;;;9.97;89.19;101235.31;5025387;28;20064;-59
2022/10/10 06:36:34;;;;;;;8.25;4.47;;;;;;;9.97;89.58;101235.31;5024303;28;20040;-59
2022/10/10 06:39:02;;;;;;;10.90;5.30;;;;;;;9.97;89.75;101243.50;5027395;28;20049;-58
2022/10/10 06:41:30;;;;;;;12.68;4.60;;;;;;;10.00;90.08;101244.88;5032958;28;20041;-57
2022/10/10 06:43:58;;;;;;;13.25;5.25;;;;;;;10.01;89.78;101246.53;5032166;28;20076;-59
2022/10/10 06:46:26;;;;;;;16.35;5.65;;;;;;;10.02;90.01;101238.09;5032070;28;20097;-57
2022/10/10 06:48:54;;;;;;;10.80;4.38;;;;;;;10.05;90.16;101239.50;5032502;28;20041;-60
2022/10/10 06:51:23;;;;;;;11.07;4.32;;;;;;;10.08;90.07;101246.34;5034694;28;20405;-55
2022/10/10 06:53:51;;;;;;;8.02;4.25;;;;;;;10.08;90.25;101249.91;5037171;28;20041;-59
2022/10/10 06:56:22;;;;;;;12.15;4.55;;;;;;;10.08;90.26;101246.34;5043947;28;20143;-59
2022/10/10 06:58:55;;;;;;;9.52;4.38;;;;;;;10.08;90.97;101249.91;5033271;28;20045;-57
2022/10/10 07:01:24;;;;;;;8.90;4.40;;;;;;;10.11;90.92;101249.38;5033188;28;20037;-58
2022/10/10 07:03:52;;;;;;;10.73;4.57;;;;;;;10.13;91.01;101249.97;5030063;28;20092;-60
2022/10/10 07:06:20;;;;;;;9.07;4.40;;;;;;;10.14;91.10;101257.03;5034662;28;20484;-59
2022/10/10 07:08:48;;;;;;;11.55;4.93;;;;;;;10.17;91.23;101250.25;5031001;28;20041;-59
2022/10/10 07:11:16;;;;;;;10.60;4.50;;;;;;;10.17;91.39;101256.53;5020137;28;20100;-62
2022/10/10 07:13:44;;;;;;;12.20;4.47;;;;;;;10.20;91.54;101247.84;5037897;28;20065;-57
2022/10/10 07:16:12;;;;;;;11.75;4.55;;;;;;;10.22;91.56;101253.88;5037991;28;20049;-59
2022/10/10 07:18:41;;;;;;;11.18;5.15;;;;;;;10.26;91.96;101258.81;5008791;28;20042;-60
2022/10/10 07:21:14;;;;;;;10.52;4.60;;;;;;;10.28;92.29;101251.22;5040493;28;20057;-60
2022/10/10 07:23:42;;;;;;;9.65;4.28;;;;;;;10.29;92.34;101258.31;5037472;28;20037;-59
2022/10/10 07:26:12;;;;;;;8.70;4.30;;;;;;;10.31;92.50;101256.16;5036003;28;20053;-57
2022/10/10 07:28:40;;;;;;;10.38;4.32;;;;;;;10.31;93.27;101250.72;5033283;28;20373;-56
2022/10/10 07:31:09;;;;;;;11.32;4.45;;;;;;;10.33;93.57;101259.47;5060672;28;20411;-57
2022/10/10 07:33:42;;;;;;;8.75;4.32;;;;;;;10.36;93.83;101267.13;5025003;28;20042;-60
2022/10/10 07:36:17;;;;;;;10.80;4.43;;;;;;;10.39;93.92;101269.31;5031664;28;20060;-59
2022/10/10 07:38:48;;;;;;;8.82;4.40;;;;;;;10.43;94.57;101265.00;5042805;28;20128;-60
2022/10/10 07:41:16;;;;;;;10.68;4.57;;;;;;;10.48;94.23;101269.69;5043489;28;20045;-60
2022/10/10 07:43:44;;;;;;;11.43;4.22;;;;;;;10.51;95.05;101272.75;5031852;28;20574;-56
2022/10/10 07:46:18;;;;;;;10.20;4.32;;;;;;;10.56;94.83;101266.50;5031977;28;20435;-56
2022/10/10 07:48:47;;;;;;;11.63;4.72;;;;;;;10.59;94.91;101274.19;5032454;28;20041;-55
2022/10/10 07:51:15;;;;;;;12.02;4.80;;;;;;;10.62;97.08;101279.13;5032343;28;20528;-53
2022/10/10 07:53:43;;;;;;;13.60;4.93;;;;;;;10.65;97.22;101284.88;5031397;28;20440;-52
2022/10/10 07:56:11;;;;;;;12.82;4.88;;;;;;;10.70;97.56;101291.44;5045370;28;20491;-56
2022/10/10 07:58:38;;;;;;;12.27;5.55;;;;;;;10.73;98.18;101294.50;5015418;28;20042;-53
2022/10/10 08:01:11;;;;;;;13.52;4.80;;;;;;;10.74;98.78;101292.59;5061362;28;20052;-55
2022/10/10 08:03:39;;;;;;;15.95;6.93;;;;;;;10.78;99.44;101294.53;5015674;28;20053;-53
2022/10/10 08:06:10;;;;;;;13.35;5.00;;;;;;;10.84;98.66;101298.13;5029198;28;20116;-55
2022/10/10 08:08:38;;;;;;;10.85;4.90;;;;;;;10.86;98.69;101301.44;5036538;28;20030;-54
2022/10/10 08:11:18;;;;;;;11.35;4.75;;;;;;;10.88;98.38;101299.28;5036182;28;20069;-52
2022/10/10 08:13:45;;;;;;;12.88;4.90;;;;;;;10.91;98.69;101298.75;5036408;28;20045;-53
2022/10/10 08:16:13;;;;;;;10.98;4.88;;;;;;;10.94;98.25;101292.75;5038493;28;20531;-53
2022/10/10 08:18:41;;;;;;;13.30;5.82;;;;;;;10.98;98.33;101293.91;5036775;28;20071;-52
2022/10/10 08:21:11;;;;;;;12.45;5.40;;;;;;;11.00;98.71;101299.09;5036294;28;20041;-55
2022/10/10 08:23:38;;;;;;;16.33;5.82;;;;;;;11.06;98.76;101301.63;5037202;28;20041;-55
2022/10/10 08:26:09;;;;;;;13.20;5.95;;;;;;;11.09;98.02;101292.09;5036345;28;20041;-56
2022/10/10 08:28:38;;;;;;;23.92;6.88;;;;;;;11.12;98.63;101299.75;5037662;28;20038;-53
2022/10/10 08:31:11;;;;;;;15.80;5.78;;;;;;;11.17;98.40;101296.25;5031949;28;20049;-57
2022/10/10 08:33:40;;;;;;;22.20;7.95;;;;;;;11.24;99.12;101292.22;5026161;28;20034;-56
2022/10/10 08:36:14;;;;;;;13.52;5.82;;;;;;;11.27;99.26;101290.88;5015314;28;20042;-56
2022/10/10 08:38:42;;;;;;;13.52;5.22;;;;;;;11.24;99.69;101292.22;5026540;28;20443;-54
2022/10/10 08:41:34;;;;;;;23.85;6.90;;;;;;;11.31;99.62;101297.47;5036063;28;20046;-51
2022/10/10 08:44:14;;;;;;;14.57;5.75;;;;;;;11.33;99.70;101292.56;5039115;28;20045;-57
2022/10/10 08:46:49;;;;;;;19.58;6.05;;;;;;;11.35;99.76;101297.75;5037238;28;20073;-54
2022/10/10 08:49:40;;;;;;;12.05;5.82;;;;;;;11.39;99.56;101298.88;5014873;28;20092;-50
2022/10/10 08:52:32;;;;;;;14.13;6.20;;;;;;;11.44;99.76;101298.91;5035640;28;20049;-54
2022/10/10 08:55:03;;;;;;;17.80;6.40;;;;;;;11.49;99.70;101305.22;5034233;28;20053;-54
2022/10/10 08:57:55;;;;;;;17.15;6.15;;;;;;;11.59;99.86;101296.25;5034367;28;20050;-53
2022/10/10 09:00:25;;;;;;;21.20;6.88;;;;;;;11.66;99.80;101304.22;5034189;28;20061;-55
2022/10/10 09:02:56;;;;;;;22.88;6.63;;;;;;;11.71;100.00;101301.53;5015007;28;20070;-55
2022/10/10 09:05:41;;;;;;;21.88;7.63;;;;;;;11.75;99.54;101291.72;5032144;28;20038;-59
2022/10/10 09:08:37;;;;;;;14.88;5.82;;;;;;;11.80;100.00;101299.13;5033765;28;20390;-52
2022/10/10 09:11:24;;;;;;;;;;;;;;;11.87;99.23;101300.56;5022087;28;20045;-54
2022/10/10 09:14:05;;;;;;;10.65;4.72;;;;;;;11.86;100.00;101293.44;5035733;28;19925;-51
2022/10/10 09:16:48;;;;;;;15.52;5.50;;;;;;;11.90;99.40;101305.50;5024816;28;20049;-54
2022/10/10 09:19:36;;;;;;;13.57;4.93;;;;;;;11.93;100.00;101307.72;5040685;28;20053;-55
2022/10/10 09:22:12;;;;;;;12.45;5.43;;;;;;;11.99;99.80;101310.47;5029163;28;20041;-57
2022/10/10 09:25:01;;;;;;;15.27;4.93;;;;;;;12.02;99.23;101313.47;5024033;28;20141;-56
2022/10/10 09:27:40;;;;;;;15.75;5.70;;;;;;;12.11;99.14;101319.25;5035716;28;20501;-55
2022/10/10 09:30:18;;;;;;;13.85;5.80;;;;;;;12.18;98.38;101314.38;5032303;28;20064;-57
2022/10/10 09:33:05;;;;;;;15.15;6.68;;;;;;;12.28;98.41;101311.69;5035118;28;20049;-54
2022/10/10 09:35:36;;;;;;;12.45;5.30;;;;;;;12.30;98.34;101323.16;5037690;28;20091;-52
2022/10/10 09:38:10;;;;;;;10.73;5.32;;;;;;;12.31;98.56;101316.63;5034851;28;20495;-56
2022/10/10 09:40:42;;;;;;;11.88;4.68;;;;;;;12.35;98.42;101317.72;5035584;28;20422;-56
2022/10/10 09:43:18;;;;;;;13.90;5.72;;;;;;;12.45;98.18;101321.59;5034068;28;20040;-55
2022/10/10 09:45:52;;;;;;;14.50;6.22;;;;;;;12.53;98.19;101323.78;5033917;28;20116;-54
2022/10/10 09:48:25;;;;;;;12.77;5.10;;;;;;;12.58;98.06;101326.56;5019504;28;20044;-56
2022/10/10 09:50:53;;;;;;;13.02;5.22;;;;;;;12.57;98.31;101336.66;5033834;28;20041;-55
2022/10/10 09:53:21;;;;;;;15.30;5.70;;;;;;;12.60;97.43;101338.03;5034273;28;20091;-53
2022/10/10 09:55:49;;;;;;;13.77;5.13;;;;;;;12.61;97.83;101328.75;5033818;28;20042;-52
2022/10/10 09:58:38;;;;;;;13.15;5.35;;;;;;;12.64;97.86;101339.13;5032817;28;20476;-56
2022/10/10 10:01:18;;;;;;;12.15;5.28;;;;;;;12.70;97.75;101340.81;5033350;28;20044;-56
2022/10/10 10:04:11;;;;;;;12.77;5.03;;;;;;;12.69;97.85;101344.63;5033039;28;20041;-52
2022/10/10 10:07:19;;;;;;;15.00;5.05;;;;;;;12.71;98.88;101336.97;5032638;28;20069;-51
2022/10/10 10:10:15;;;;;;;16.75;5.75;;;;;;;12.75;98.75;101338.09;5034140;28;20052;-52
2022/10/10 10:12:44;;;;;;;13.52;5.25;;;;;;;12.77;98.17;101335.91;5048456;28;20100;-53
2022/10/10 10:15:31;;;;;;;12.48;5.03;;;;;;;12.79;97.71;101339.19;5030628;28;20088;-56
2022/10/10 10:18:16;;;;;;;14.05;4.95;;;;;;;12.84;96.77;101343.00;5024996;28;20052;-54
2022/10/10 10:20:48;;;;;;;12.70;5.07;;;;;;;12.85;96.43;101347.41;5033760;28;20554;-56
2022/10/10 10:23:32;;;;;;;12.95;5.10;;;;;;;12.89;97.09;101348.47;5032273;28;20044;-52
2022/10/10 10:26:16;;;;;;;14.40;5.25;;;;;;;12.91;97.61;101351.78;5002415;28;20449;-51
2022/10/10 10:28:45;;;;;;;11.93;5.15;;;;;;;12.91;97.64;101346.31;5032878;28;20060;-53
2022/10/10 10:31:36;;;;;;;14.23;5.32;;;;;;;12.92;97.86;101353.44;5032090;28;20045;-52
2022/10/10 10:34:22;;;;;;;13.52;5.10;;;;;;;12.93;98.91;101344.13;5036544;28;20388;-54
2022/10/10 10:36:59;;;;;;;12.75;4.88;;;;;;;12.95;98.29;101347.41;5032824;28;20029;-57
2022/10/10 10:40:06;;;;;;;18.88;6.70;;;;;;;12.98;97.69;101353.16;5033794;28;20046;-55
2022/10/10 10:43:04;;;;;;;21.13;6.25;;;;;;;13.06;98.13;101356.44;5034651;28;20045;-51
2022/10/10 10:46:00;;;;;;;18.30;6.85;;;;;;;13.12;98.73;101347.97;5033254;28;20044;-53
2022/10/10 10:48:57;;;;;;;22.90;8.55;;;;;;;13.22;99.85;101353.44;5021089;28;20116;-51
2022/10/10 10:51:24;;;;;;;15.63;5.82;;;;;;;13.28;98.77;101339.81;5034844;28;20052;-55
2022/10/10 10:54:14;;;;;;;16.13;5.28;;;;;;;13.30;96.72;101360.34;5027668;28;20041;-52
2022/10/10 10:56:59;;;;;;;16.63;4.95;;;;;;;13.33;95.11;101364.47;5040974;28;20061;-53
2022/10/10 10:59:39;;;;;;;12.25;4.75;;;;;;;13.37;94.81;101373.75;5033641;28;20476;-53
2022/10/10 11:02:45;;;;;;;13.27;4.95;;;;;;;13.40;93.75;101375.97;5033371;28;20041;-53
2022/10/10 11:05:47;;;;;;;18.63;5.20;;;;;;;13.45;93.74;101381.44;5019250;28;20052;-55
2022/10/10 11:08:42;;;;;;;15.40;4.60;;;;;;;13.50;93.30;101381.41;5032335;28;20444;-49
2022/10/10 11:11:26;;;;;;;12.07;4.93;;;;;;;13.56;93.15;101380.31;5016626;28;20053;-53
2022/10/10 11:14:15;;;;;;;17.30;5.60;;;;;;;13.58;93.29;101386.34;5028423;28;20486;-54
2022/10/10 11:16:49;;;;;;;12.13;4.30;;;;;;;13.57;93.35;101390.19;5033017;28;20037;-55
2022/10/10 11:19:33;;;;;;;12.75;4.85;;;;;;;13.61;93.86;101394.03;5033206;28;20037;-55
2022/10/10 11:22:19;;;;;;;16.65;4.78;;;;;;;13.68;93.36;101392.91;5033389;28;20072;-53
2022/10/10 11:25:18;;;;;;;11.95;4.82;;;;;;;13.72;93.39;101394.00;5029330;28;20045;-54
2022/10/10 11:27:56;;;;;;;14.77;4.53;;;;;;;13.79;93.75;101391.81;5022773;28;20045;-50
2022/10/10 11:30:25;;;;;;;19.40;5.63;;;;;;;13.88;93.79;101392.06;5035838;28;20053;-49
2022/10/10 11:32:59;;;;;;;14.55;4.95;;;;;;;13.93;93.53;101401.13;5028339;28;20038;-55
2022/10/10 11:35:58;;;;;;;12.60;4.60;;;;;;;14.03;93.02;101403.81;5050762;28;20445;-54
2022/10/10 11:38:53;;;;;;;12.73;4.95;;;;;;;14.12;91.98;101397.75;5028583;28;20057;-54
2022/10/10 11:41:38;;;;;;;11.57;4.65;;;;;;;14.16;91.93;101398.88;5036612;28;20407;-56
2022/10/10 11:44:13;;;;;;;8.98;4.43;;;;;;;14.20;91.08;101389.00;5035778;28;20087;-53
2022/10/10 11:46:42;;;;;;;19.77;5.05;;;;;;;14.21;91.15;101391.44;5038222;28;20044;-56
2022/10/10 11:49:15;;;;;;;9.82;4.05;;;;;;;14.22;91.34;101395.03;5009908;28;20077;-56
2022/10/10 11:51:55;;;;;;;13.65;5.40;;;;;;;14.25;92.42;101392.53;5034503;28;20087;-51